Time;durP1;ratioP1;P1;durP2;ratioP2;P2;SDS_P1;SDS_P2;PMS_P1;PMS_P2;Temp;Humidity;BMP_temperature;BMP_pressure;BME280_temperature;BME280_humidity;BME280_pressure;Samples;Min_cycle;Max_cycle;Signal;HPM_P1;HPM_P2
2021/03/13 00:00:07;;;;;;;5.15;2.10;;;5.80;84.10;;;;;;5077254;28;20406;-67
2021/03/13 00:02:33;;;;;;;2.53;1.90;;;5.90;84.20;;;;;;5071869;28;20029;-67
2021/03/13 00:04:58;;;;;;;3.92;2.10;;;5.80;84.30;;;;;;5062415;28;20033;-68
2021/03/13 00:07:24;;;;;;;3.78;2.15;;;5.90;84.30;;;;;;5057477;28;20060;-68
2021/03/13 00:09:51;;;;;;;2.15;1.95;;;5.90;84.20;;;;;;5052460;28;20037;-69
2021/03/13 00:12:16;;;;;;;4.57;2.28;;;5.80;84.80;;;;;;5068728;28;20129;-69
2021/03/13 00:14:42;;;;;;;2.65;1.80;;;5.80;84.70;;;;;;5051473;28;20484;-69
2021/03/13 00:17:08;;;;;;;4.68;2.38;;;5.80;84.70;;;;;;5071057;28;20139;-68
2021/03/13 00:19:33;;;;;;;3.63;1.83;;;5.80;84.80;;;;;;5054433;28;20040;-69
2021/03/13 00:21:59;;;;;;;2.42;1.77;;;5.80;84.60;;;;;;5061369;28;20091;-69
2021/03/13 00:24:24;;;;;;;4.20;1.80;;;5.80;84.50;;;;;;5038803;28;20044;-69
2021/03/13 00:26:50;;;;;;;2.72;1.80;;;5.80;84.50;;;;;;5072261;28;20543;-69
2021/03/13 00:29:16;;;;;;;2.47;1.77;;;5.80;84.90;;;;;;5070016;28;20025;-69
2021/03/13 00:31:41;;;;;;;3.40;2.00;;;5.70;85.30;;;;;;5054015;28;20028;-69
2021/03/13 00:34:07;;;;;;;2.95;1.60;;;5.70;85.30;;;;;;5070688;28;20480;-68
2021/03/13 00:36:32;;;;;;;3.88;1.50;;;5.60;85.50;;;;;;5075890;28;20067;-68
2021/03/13 00:38:58;;;;;;;2.42;1.38;;;5.80;85.00;;;;;;5073846;28;20040;-69
2021/03/13 00:41:24;;;;;;;1.98;1.73;;;5.90;84.60;;;;;;5078104;28;20032;-69
2021/03/13 00:43:49;;;;;;;2.40;1.90;;;5.90;84.50;;;;;;5078186;28;20389;-69
2021/03/13 00:46:15;;;;;;;2.33;1.70;;;5.90;84.30;;;;;;5076408;28;20369;-68
2021/03/13 00:48:40;;;;;;;2.80;1.90;;;5.90;84.40;;;;;;5076656;28;20036;-68
2021/03/13 00:51:09;;;;;;;2.75;2.05;;;5.80;84.70;;;;;;5074590;28;20036;-67
2021/03/13 00:53:35;;;;;;;2.22;1.85;;;5.90;84.90;;;;;;5074463;28;20468;-67
2021/03/13 00:56:01;;;;;;;3.67;2.10;;;5.80;85.20;;;;;;5075106;28;20060;-68
2021/03/13 00:58:26;;;;;;;2.42;1.85;;;5.80;85.10;;;;;;5075451;28;20044;-69
2021/03/13 01:00:52;;;;;;;3.22;2.00;;;6.00;84.30;;;;;;5073974;28;20036;-68
2021/03/13 01:03:18;;;;;;;3.45;2.33;;;6.10;83.90;;;;;;5074465;28;20391;-68
2021/03/13 01:05:43;;;;;;;4.35;1.98;;;6.00;84.10;;;;;;5074347;28;20115;-68
2021/03/13 01:08:09;;;;;;;3.03;2.13;;;6.00;84.10;;;;;;5074154;28;20028;-68
2021/03/13 01:10:38;;;;;;;2.55;1.90;;;6.10;83.90;;;;;;5065355;28;20041;-68
2021/03/13 01:13:04;;;;;;;4.32;2.20;;;6.10;84.10;;;;;;5053507;28;20502;-66
2021/03/13 01:15:31;;;;;;;2.67;1.75;;;5.90;84.50;;;;;;5054390;28;20480;-67
2021/03/13 01:17:57;;;;;;;2.78;1.90;;;5.90;85.00;;;;;;5054675;28;20045;-67
2021/03/13 01:20:24;;;;;;;3.53;2.20;;;5.90;85.20;;;;;;5037436;28;20033;-68
2021/03/13 01:22:49;;;;;;;2.63;2.10;;;5.90;85.00;;;;;;5053712;28;20092;-67
2021/03/13 01:25:15;;;;;;;2.45;2.20;;;5.80;85.40;;;;;;5066627;28;20422;-68
2021/03/13 01:27:41;;;;;;;3.78;2.20;;;5.90;84.80;;;;;;5074843;28;20036;-68
2021/03/13 01:30:13;;;;;;;2.85;2.28;;;5.90;85.10;;;;;;5073518;28;20435;-69
2021/03/13 01:32:39;;;;;;;3.72;2.20;;;5.90;84.90;;;;;;5074872;28;20033;-69
2021/03/13 01:35:07;;;;;;;5.20;2.30;;;6.00;84.60;;;;;;5074448;28;20028;-69
2021/03/13 01:37:33;;;;;;;4.50;2.30;;;5.90;84.80;;;;;;5074817;28;20111;-68
2021/03/13 01:39:59;;;;;;;4.22;2.15;;;6.00;84.70;;;;;;5074425;28;20032;-68
2021/03/13 01:42:24;;;;;;;4.07;3.10;;;6.10;84.40;;;;;;5074301;28;20218;-68
2021/03/13 01:44:50;;;;;;;4.45;2.88;;;6.00;84.50;;;;;;5074023;28;20086;-68
2021/03/13 01:47:21;;;;;;;3.47;2.50;;;6.10;84.10;;;;;;5073528;28;20028;-69
2021/03/13 01:49:51;;;;;;;4.53;2.70;;;6.20;83.80;;;;;;5073555;28;20162;-69
2021/03/13 01:52:17;;;;;;;7.38;2.65;;;6.20;83.50;;;;;;5072865;28;20553;-68
2021/03/13 01:54:44;;;;;;;4.18;2.42;;;6.20;83.40;;;;;;5056054;28;20044;-68
2021/03/13 01:57:10;;;;;;;4.35;2.58;;;6.20;83.30;;;;;;5074519;28;20480;-69
2021/03/13 01:59:39;;;;;;;3.47;2.58;;;6.20;83.10;;;;;;5072429;28;20044;-69
2021/03/13 02:02:08;;;;;;;3.88;2.70;;;6.20;83.10;;;;;;5073723;28;20064;-66
2021/03/13 02:04:38;;;;;;;4.30;2.38;;;6.20;83.10;;;;;;5073396;28;20039;-68
2021/03/13 02:07:19;;;;;;;4.03;2.72;;;6.30;82.90;;;;;;5072336;28;20036;-68
2021/03/13 02:10:02;;;;;;;4.65;3.13;;;6.20;83.00;;;;;;5072629;28;20025;-68
2021/03/13 02:12:53;;;;;;;5.00;3.20;;;6.20;82.70;;;;;;5054079;28;20029;-69
2021/03/13 02:15:35;;;;;;;3.67;2.50;;;6.20;82.80;;;;;;5053631;28;20396;-68
2021/03/13 02:18:30;;;;;;;4.45;2.60;;;6.10;83.00;;;;;;5053954;28;20040;-68
2021/03/13 02:21:13;;;;;;;4.60;2.78;;;6.20;82.90;;;;;;5053394;28;20079;-68
2021/03/13 02:23:55;;;;;;;4.43;2.50;;;6.20;83.20;;;;;;5053593;28;20048;-68
2021/03/13 02:26:39;;;;;;;6.63;2.55;;;6.20;83.10;;;;;;5051965;28;20116;-67
2021/03/13 02:29:23;;;;;;;3.28;2.63;;;6.20;83.10;;;;;;5067193;28;20083;-68
2021/03/13 02:31:52;;;;;;;2.90;2.35;;;6.10;83.20;;;;;;5056063;28;20029;-68
2021/03/13 02:34:23;;;;;;;3.15;2.58;;;6.20;83.20;;;;;;5067696;28;20037;-68
2021/03/13 02:36:50;;;;;;;4.70;2.60;;;6.20;83.30;;;;;;5069340;28;20032;-67
2021/03/13 02:39:22;;;;;;;3.38;2.60;;;6.20;83.30;;;;;;5052980;28;20115;-68
2021/03/13 02:41:52;;;;;;;5.53;2.63;;;6.10;83.50;;;;;;5071159;28;20052;-68
2021/03/13 02:44:20;;;;;;;5.65;2.40;;;6.10;83.80;;;;;;5072428;28;20377;-67
2021/03/13 02:46:48;;;;;;;6.45;2.75;;;6.10;83.90;;;;;;5071648;28;20483;-68
2021/03/13 02:49:18;;;;;;;5.38;3.70;;;6.10;84.00;;;;;;5071809;28;20033;-68
2021/03/13 02:51:45;;;;;;;3.80;2.45;;;6.10;83.90;;;;;;5070898;28;20040;-68
2021/03/13 02:54:12;;;;;;;4.72;2.78;;;6.20;84.10;;;;;;5070474;28;20528;-68
2021/03/13 02:56:41;;;;;;;3.25;2.47;;;6.10;84.00;;;;;;5071699;28;20032;-68
2021/03/13 02:59:09;;;;;;;3.60;2.60;;;6.20;84.10;;;;;;5072500;28;20047;-68
2021/03/13 03:01:35;;;;;;;3.70;2.70;;;6.20;84.10;;;;;;5073701;28;20117;-68
2021/03/13 03:04:01;;;;;;;4.07;2.70;;;6.20;84.00;;;;;;5073095;28;20104;-68
2021/03/13 03:06:30;;;;;;;5.28;2.65;;;6.20;84.00;;;;;;5072018;28;20459;-68
2021/03/13 03:08:58;;;;;;;4.60;2.55;;;6.30;84.00;;;;;;5071721;28;20021;-67
2021/03/13 03:11:24;;;;;;;4.88;2.70;;;6.30;84.00;;;;;;5039114;28;20033;-69
2021/03/13 03:13:52;;;;;;;3.90;3.00;;;6.20;84.00;;;;;;5074147;28;20037;-68
2021/03/13 03:16:20;;;;;;;5.90;2.45;;;6.30;84.00;;;;;;5076104;28;20033;-67
2021/03/13 03:18:46;;;;;;;4.38;2.40;;;6.30;83.80;;;;;;5072935;28;20041;-67
2021/03/13 03:21:13;;;;;;;4.28;2.83;;;6.40;83.80;;;;;;5071755;28;20480;-67
2021/03/13 03:23:41;;;;;;;4.88;3.03;;;6.30;83.60;;;;;;5071156;28;20123;-67
2021/03/13 03:26:06;;;;;;;3.40;2.30;;;6.30;84.00;;;;;;5072652;28;20028;-67
2021/03/13 03:28:32;;;;;;;3.83;2.60;;;6.20;83.80;;;;;;5070953;28;20042;-68
2021/03/13 03:30:58;;;;;;;3.75;2.30;;;6.20;83.90;;;;;;5071105;28;20036;-66
2021/03/13 03:33:24;;;;;;;5.93;2.50;;;6.20;83.80;;;;;;5071012;28;20111;-68
2021/03/13 03:35:50;;;;;;;5.50;3.75;;;6.30;83.40;;;;;;5069677;28;20041;-68
2021/03/13 03:38:20;;;;;;;5.75;2.88;;;6.30;83.10;;;;;;5071048;28;20032;-67
2021/03/13 03:40:47;;;;;;;4.07;2.80;;;6.30;83.10;;;;;;5084465;28;20040;-68
2021/03/13 03:43:12;;;;;;;4.35;3.13;;;6.20;83.10;;;;;;5072141;28;20721;-69
2021/03/13 03:45:40;;;;;;;4.15;2.67;;;6.20;83.20;;;;;;5073931;28;20039;-69
2021/03/13 03:48:11;;;;;;;3.55;2.85;;;6.30;83.00;;;;;;5093497;28;20036;-68
2021/03/13 03:50:38;;;;;;;3.15;2.85;;;6.30;82.80;;;;;;5074244;28;20039;-67
2021/03/13 03:53:11;;;;;;;3.85;2.60;;;6.30;82.80;;;;;;5091889;28;20032;-67
2021/03/13 03:55:40;;;;;;;4.38;2.60;;;6.30;82.80;;;;;;5092405;28;20396;-68
2021/03/13 03:58:08;;;;;;;2.90;2.60;;;6.30;82.70;;;;;;5092084;28;20032;-69
2021/03/13 04:00:35;;;;;;;3.97;2.80;;;6.30;82.70;;;;;;5074168;28;20054;-68
2021/03/13 04:03:06;;;;;;;3.20;2.70;;;6.30;82.70;;;;;;5092372;28;20087;-68
2021/03/13 04:05:33;;;;;;;3.55;2.38;;;6.20;83.00;;;;;;5073882;28;20055;-68
2021/03/13 04:07:59;;;;;;;3.92;2.35;;;6.20;83.10;;;;;;5092154;28;20042;-68
2021/03/13 04:10:26;;;;;;;4.53;2.40;;;6.10;83.20;;;;;;5074419;28;20110;-67
2021/03/13 04:12:56;;;;;;;2.67;2.30;;;6.10;83.00;;;;;;5091334;28;20376;-68
2021/03/13 04:15:22;;;;;;;7.43;2.78;;;6.20;83.00;;;;;;5092199;28;20024;-68
2021/03/13 04:17:48;;;;;;;4.32;2.60;;;6.20;83.00;;;;;;5092590;28;20035;-73
2021/03/13 04:20:14;;;;;;;2.78;2.38;;;6.20;82.70;;;;;;5074168;28;20127;-69
2021/03/13 04:22:40;;;;;;;2.90;2.58;;;6.20;82.60;;;;;;5090393;28;20127;-68
2021/03/13 04:25:07;;;;;;;4.32;2.38;;;6.20;82.80;;;;;;5092019;28;20028;-68
2021/03/13 04:27:34;;;;;;;3.63;2.60;;;6.20;82.70;;;;;;5091159;28;20024;-68
2021/03/13 04:30:00;;;;;;;3.45;2.78;;;6.10;82.90;;;;;;5071666;28;20068;-68
2021/03/13 04:32:26;;;;;;;3.33;2.67;;;6.20;82.90;;;;;;5071032;28;20025;-72
2021/03/13 04:34:53;;;;;;;3.55;2.70;;;6.20;82.90;;;;;;5090697;28;20516;-68
2021/03/13 04:37:20;;;;;;;3.10;2.60;;;6.30;82.50;;;;;;5092684;28;20044;-67
2021/03/13 04:39:47;;;;;;;3.25;2.58;;;6.30;82.20;;;;;;5090088;28;20083;-69
2021/03/13 04:42:13;;;;;;;4.00;2.60;;;6.30;82.40;;;;;;5090974;28;20025;-67
2021/03/13 04:44:40;;;;;;;3.38;2.75;;;6.30;83.10;;;;;;5092127;28;20029;-68
2021/03/13 04:47:05;;;;;;;3.15;2.80;;;6.30;82.10;;;;;;5092225;28;20024;-71
2021/03/13 04:49:31;;;;;;;3.40;2.95;;;6.30;82.10;;;;;;5091959;28;20047;-71
2021/03/13 04:52:00;;;;;;;3.60;2.75;;;6.30;82.30;;;;;;5090614;28;20432;-69
2021/03/13 04:54:29;;;;;;;3.85;3.20;;;6.30;82.30;;;;;;5082148;28;20036;-67
2021/03/13 04:56:54;;;;;;;3.75;3.17;;;6.30;82.00;;;;;;5090765;28;20428;-68
2021/03/13 04:59:21;;;;;;;4.28;3.17;;;6.30;82.00;;;;;;5091100;28;20054;-69
2021/03/13 05:01:47;;;;;;;5.85;3.67;;;6.20;82.20;;;;;;5074099;28;20036;-70
2021/03/13 05:04:13;;;;;;;3.55;3.05;;;6.20;82.30;;;;;;5091343;28;20034;-69
2021/03/13 05:06:39;;;;;;;5.65;3.50;;;6.20;82.20;;;;;;5090151;28;20032;-68
2021/03/13 05:09:05;;;;;;;7.40;3.55;;;6.20;82.50;;;;;;5092081;28;20517;-68
2021/03/13 05:11:31;;;;;;;3.97;3.55;;;6.20;82.40;;;;;;5073645;28;20552;-69
2021/03/13 05:13:56;;;;;;;4.70;3.45;;;6.20;82.60;;;;;;5091245;28;20028;-68
2021/03/13 05:16:22;;;;;;;5.10;3.88;;;6.30;82.20;;;;;;5091777;28;20386;-68
2021/03/13 05:18:47;;;;;;;6.30;4.32;;;6.30;82.80;;;;;;5090157;28;20367;-69
2021/03/13 05:21:13;;;;;;;5.95;4.43;;;6.30;81.80;;;;;;5090230;28;20044;-68
2021/03/13 05:23:41;;;;;;;6.47;4.50;;;6.30;82.00;;;;;;5090590;28;20176;-68
2021/03/13 05:26:07;;;;;;;6.07;4.57;;;6.30;82.10;;;;;;5094767;28;20111;-67
2021/03/13 05:28:33;;;;;;;6.05;5.10;;;6.30;82.20;;;;;;5095594;28;20111;-68
2021/03/13 05:30:58;;;;;;;7.38;5.10;;;6.40;82.00;;;;;;5094009;28;20147;-68
2021/03/13 05:33:24;;;;;;;5.97;5.07;;;6.40;81.90;;;;;;5096754;28;20031;-69
2021/03/13 05:35:49;;;;;;;6.60;4.95;;;6.50;81.70;;;;;;5097749;28;20067;-68
2021/03/13 05:38:15;;;;;;;7.68;5.28;;;6.40;81.80;;;;;;5096097;28;20123;-68
2021/03/13 05:40:44;;;;;;;5.95;4.70;;;6.40;81.70;;;;;;5095750;28;20036;-68
2021/03/13 05:43:12;;;;;;;6.57;4.90;;;6.50;81.60;;;;;;5096154;28;20035;-67
2021/03/13 05:45:40;;;;;;;6.97;5.13;;;6.50;81.60;;;;;;5096557;28;20039;-68
2021/03/13 05:48:08;;;;;;;6.95;5.68;;;6.50;81.50;;;;;;5095694;28;20125;-68
2021/03/13 05:50:35;;;;;;;6.70;4.75;;;6.50;81.70;;;;;;5077125;28;20093;-67
2021/03/13 05:53:03;;;;;;;10.52;7.32;;;6.50;81.70;;;;;;5060858;28;20040;-67
2021/03/13 05:55:30;;;;;;;7.95;6.53;;;6.60;82.40;;;;;;5093983;28;20028;-68
2021/03/13 05:57:56;;;;;;;6.45;5.20;;;6.60;81.60;;;;;;5094698;28;20028;-69
2021/03/13 06:00:22;;;;;;;6.43;4.70;;;6.60;81.70;;;;;;5076323;28;20058;-69
2021/03/13 06:02:49;;;;;;;5.72;5.13;;;6.60;82.40;;;;;;5059927;28;20456;-69
2021/03/13 06:05:15;;;;;;;7.35;5.10;;;6.60;81.80;;;;;;5094388;28;20475;-68
2021/03/13 06:07:44;;;;;;;7.30;5.50;;;6.70;81.60;;;;;;5094244;28;20078;-67
2021/03/13 06:10:13;;;;;;;7.35;5.55;;;6.60;81.90;;;;;;5076479;28;20087;-69
2021/03/13 06:12:39;;;;;;;8.90;5.78;;;6.70;82.00;;;;;;5094218;28;20032;-70
2021/03/13 06:15:06;;;;;;;6.38;5.57;;;6.70;81.90;;;;;;5093672;28;20102;-68
2021/03/13 06:17:51;;;;;;;6.75;5.43;;;6.70;82.20;;;;;;5094563;28;20041;-69
2021/03/13 06:20:22;;;;;;;7.22;5.40;;;6.70;82.50;;;;;;5079513;28;20446;-69
2021/03/13 06:22:48;;;;;;;6.53;4.97;;;6.70;82.70;;;;;;5078034;28;20450;-68
2021/03/13 06:25:13;;;;;;;7.97;5.97;;;6.60;82.90;;;;;;5097423;28;20056;-67
2021/03/13 06:27:43;;;;;;;5.82;4.60;;;6.70;83.10;;;;;;5094642;28;20024;-69
2021/03/13 06:30:10;;;;;;;4.68;4.15;;;6.70;83.30;;;;;;5095668;28;20089;-69
2021/03/13 06:32:36;;;;;;;5.13;4.10;;;6.70;83.10;;;;;;5076947;28;20032;-68
2021/03/13 06:35:18;;;;;;;6.45;4.20;;;6.80;83.10;;;;;;5094599;28;20415;-68
2021/03/13 06:37:47;;;;;;;6.13;4.50;;;6.80;83.40;;;;;;5076717;28;20032;-68
2021/03/13 06:40:28;;;;;;;5.60;4.20;;;6.90;83.20;;;;;;5059466;28;20495;-68
2021/03/13 06:42:54;;;;;;;5.47;4.50;;;6.90;83.50;;;;;;5075995;28;20032;-67
2021/03/13 06:45:22;;;;;;;4.95;4.20;;;6.90;83.50;;;;;;5093044;28;20090;-68
2021/03/13 06:47:48;;;;;;;4.57;3.97;;;6.90;83.60;;;;;;5075783;28;20097;-68
2021/03/13 06:50:20;;;;;;;5.43;4.10;;;6.90;83.50;;;;;;5074886;28;20483;-69
2021/03/13 06:52:51;;;;;;;4.53;3.80;;;6.90;83.50;;;;;;5093209;28;20471;-68
2021/03/13 06:55:19;;;;;;;4.00;3.40;;;7.00;83.70;;;;;;5075386;28;20040;-69
2021/03/13 06:57:47;;;;;;;3.90;3.30;;;7.00;83.80;;;;;;5093256;28;20387;-68
2021/03/13 07:00:30;;;;;;;5.05;3.78;;;7.10;83.30;;;;;;5092893;28;20502;-69
2021/03/13 07:03:15;;;;;;;4.30;3.30;;;7.10;83.60;;;;;;5093467;28;20040;-69
2021/03/13 07:05:43;;;;;;;4.57;3.28;;;7.10;83.40;;;;;;5093179;28;20032;-68
2021/03/13 07:08:28;;;;;;;3.72;2.88;;;7.20;83.00;;;;;;5074973;28;20024;-68
2021/03/13 07:11:14;;;;;;;5.35;4.53;;;7.30;82.60;;;;;;5092663;28;20453;-68
2021/03/13 07:13:43;;;;;;;2.97;2.60;;;7.30;82.40;;;;;;5093052;28;20032;-70
2021/03/13 07:16:31;;;;;;;3.70;2.78;;;7.40;82.30;;;;;;5092700;28;20024;-69
2021/03/13 07:19:01;;;;;;;2.63;2.20;;;7.40;81.90;;;;;;5093273;28;20036;-68
2021/03/13 07:21:27;;;;;;;2.70;2.20;;;7.50;81.70;;;;;;5092529;28;20024;-68
2021/03/13 07:24:04;;;;;;;4.00;3.08;;;7.50;81.80;;;;;;5092432;28;20060;-68
2021/03/13 07:26:40;;;;;;;3.03;2.05;;;7.60;81.60;;;;;;5091715;28;20038;-68
2021/03/13 07:29:08;;;;;;;1.70;1.60;;;7.60;81.20;;;;;;5090440;28;20541;-68
2021/03/13 07:31:40;;;;;;;1.65;1.52;;;7.70;80.80;;;;;;5075077;28;20036;-69
2021/03/13 07:34:10;;;;;;;2.15;1.60;;;7.70;80.70;;;;;;5058760;28;20094;-68
2021/03/13 07:36:41;;;;;;;2.58;1.30;;;7.80;80.60;;;;;;5092977;28;20052;-68
2021/03/13 07:39:26;;;;;;;1.60;1.50;;;7.70;80.60;;;;;;5092518;28;20085;-68
2021/03/13 07:42:03;;;;;;;1.70;1.60;;;7.80;80.80;;;;;;5091984;28;20032;-69
2021/03/13 07:44:30;;;;;;;5.07;3.55;;;7.80;80.70;;;;;;5092206;28;20024;-67
2021/03/13 07:46:57;;;;;;;3.05;1.38;;;7.80;81.10;;;;;;5091728;28;20036;-70
2021/03/13 07:49:24;;;;;;;1.42;1.30;;;7.90;80.80;;;;;;5092505;28;20024;-68
2021/03/13 07:51:53;;;;;;;1.40;1.30;;;7.90;80.80;;;;;;5092288;28;20040;-68
2021/03/13 07:54:20;;;;;;;1.23;1.20;;;7.90;80.90;;;;;;5074162;28;20036;-68
2021/03/13 07:56:46;;;;;;;1.17;1.17;;;7.90;80.90;;;;;;5074295;28;20070;-68
2021/03/13 07:59:33;;;;;;;1.40;1.30;;;8.00;80.80;;;;;;5092482;28;20039;-69
2021/03/13 08:01:58;;;;;;;1.20;1.20;;;8.00;80.50;;;;;;5091924;28;20035;-68
2021/03/13 08:04:42;;;;;;;2.05;1.23;;;8.00;80.20;;;;;;5092714;28;20040;-70
2021/03/13 08:07:08;;;;;;;1.10;1.10;;;8.00;80.30;;;;;;5092458;28;20035;-68
2021/03/13 08:09:42;;;;;;;1.70;1.55;;;8.10;80.00;;;;;;5074591;28;20060;-69
2021/03/13 08:12:08;;;;;;;1.52;1.33;;;8.20;79.60;;;;;;5094654;28;20032;-69
2021/03/13 08:14:35;;;;;;;2.03;1.75;;;8.30;79.00;;;;;;5098219;28;20051;-68
2021/03/13 08:17:11;;;;;;;1.35;1.25;;;8.30;79.00;;;;;;5097884;28;20043;-68
2021/03/13 08:19:44;;;;;;;2.20;1.30;;;8.40;78.50;;;;;;5095911;28;20047;-69
2021/03/13 08:22:11;;;;;;;2.08;1.30;;;8.40;77.90;;;;;;5091873;28;20038;-70
2021/03/13 08:24:52;;;;;;;0.88;0.88;;;8.40;78.20;;;;;;5098879;28;20020;-68
2021/03/13 08:27:33;;;;;;;1.42;1.30;;;8.40;77.90;;;;;;5079100;28;20442;-68
2021/03/13 08:30:00;;;;;;;1.48;1.38;;;8.50;77.60;;;;;;5092165;28;20020;-67
2021/03/13 08:33:02;;;;;;;1.52;1.13;;;8.50;77.80;;;;;;5092613;28;20039;-70
2021/03/13 08:35:35;;;;;;;1.00;1.00;;;8.60;77.60;;;;;;5092228;28;20040;-67
2021/03/13 08:38:01;;;;;;;1.20;1.10;;;8.50;77.60;;;;;;5070593;28;20040;-69
2021/03/13 08:40:27;;;;;;;5.82;1.63;;;8.60;77.70;;;;;;5053975;28;20032;-68
2021/03/13 08:42:53;;;;;;;1.10;1.10;;;8.60;77.80;;;;;;5073245;28;20040;-68
2021/03/13 08:45:20;;;;;;;1.23;1.13;;;8.70;77.30;;;;;;5074011;28;20039;-69
2021/03/13 08:47:49;;;;;;;2.10;1.42;;;8.60;77.60;;;;;;5092434;28;20517;-68
2021/03/13 08:50:43;;;;;;;4.15;1.80;;;8.60;77.20;;;;;;5057340;28;20111;-68
2021/03/13 08:53:28;;;;;;;2.70;1.77;;;8.70;77.20;;;;;;5074332;28;20456;-69
2021/03/13 08:55:56;;;;;;;1.98;1.70;;;8.80;77.40;;;;;;5074090;28;20047;-69
2021/03/13 08:58:44;;;;;;;1.60;1.45;;;8.70;77.30;;;;;;5091844;28;20515;-69
2021/03/13 09:01:16;;;;;;;1.48;1.38;;;8.70;77.40;;;;;;5095137;28;20502;-68
2021/03/13 09:03:52;;;;;;;2.17;1.98;;;8.80;77.40;;;;;;5077851;28;20043;-69
2021/03/13 09:06:20;;;;;;;1.80;1.60;;;8.80;77.10;;;;;;5077818;28;20024;-67
2021/03/13 09:08:47;;;;;;;2.20;2.00;;;8.80;77.10;;;;;;5095932;28;20082;-69
2021/03/13 09:11:12;;;;;;;3.95;2.10;;;8.90;77.40;;;;;;5096018;28;20031;-69
2021/03/13 09:13:38;;;;;;;1.63;1.52;;;8.90;77.40;;;;;;5077262;28;20036;-69
2021/03/13 09:16:19;;;;;;;1.85;1.52;;;8.90;77.20;;;;;;5060752;28;20495;-68
2021/03/13 09:18:55;;;;;;;2.20;1.90;;;9.00;76.90;;;;;;5075301;28;20825;-69
2021/03/13 09:21:46;;;;;;;2.00;1.60;;;9.10;76.90;;;;;;5089643;28;20556;-69
2021/03/13 09:24:16;;;;;;;3.42;1.90;;;9.00;76.60;;;;;;5080675;28;20020;-69
2021/03/13 09:26:42;;;;;;;2.55;1.95;;;9.20;76.70;;;;;;5110549;28;20043;-69
2021/03/13 09:29:08;;;;;;;3.55;1.80;;;9.20;76.40;;;;;;5095164;28;20519;-68
2021/03/13 09:31:34;;;;;;;2.47;1.50;;;9.20;76.30;;;;;;5094766;28;20035;-70
2021/03/13 09:34:14;;;;;;;2.50;1.88;;;9.20;76.40;;;;;;5076815;28;20123;-68
2021/03/13 09:36:39;;;;;;;3.38;2.10;;;9.30;76.30;;;;;;5094867;28;20028;-68
2021/03/13 09:39:05;;;;;;;2.20;1.58;;;9.20;76.40;;;;;;5094786;28;20046;-70
2021/03/13 09:41:31;;;;;;;1.98;1.70;;;9.30;76.40;;;;;;5076584;28;20036;-68
2021/03/13 09:43:56;;;;;;;2.65;1.85;;;9.50;76.30;;;;;;5094954;28;20045;-68
2021/03/13 09:46:24;;;;;;;3.35;1.90;;;9.50;76.40;;;;;;5094801;28;20031;-69
2021/03/13 09:48:49;;;;;;;2.05;1.83;;;9.50;76.50;;;;;;5094986;28;20109;-69
2021/03/13 09:51:15;;;;;;;3.33;2.05;;;9.60;75.90;;;;;;5076758;28;20064;-68
2021/03/13 09:53:45;;;;;;;2.72;1.80;;;9.60;75.50;;;;;;5094783;28;20062;-68
2021/03/13 09:56:11;;;;;;;2.97;1.92;;;9.60;76.10;;;;;;5095142;28;20063;-68
2021/03/13 09:58:37;;;;;;;3.22;1.92;;;9.50;76.10;;;;;;5095143;28;20491;-69
2021/03/13 10:01:05;;;;;;;3.08;1.90;;;9.50;76.20;;;;;;5094413;28;20122;-68
2021/03/13 10:03:31;;;;;;;2.33;1.90;;;9.50;76.00;;;;;;5076623;28;20059;-68
2021/03/13 10:05:58;;;;;;;2.65;1.67;;;9.50;76.10;;;;;;5093691;28;20483;-68
2021/03/13 10:08:34;;;;;;;1.98;1.67;;;9.60;75.70;;;;;;5086043;28;20024;-69
2021/03/13 10:11:02;;;;;;;2.85;1.70;;;9.70;75.70;;;;;;5093168;28;20110;-69
2021/03/13 10:13:29;;;;;;;2.00;1.70;;;9.70;75.30;;;;;;5114305;28;20035;-70
2021/03/13 10:15:55;;;;;;;2.20;1.63;;;9.70;75.40;;;;;;5114261;28;20142;-68
2021/03/13 10:18:25;;;;;;;1.88;1.48;;;9.70;75.00;;;;;;5114214;28;20439;-69
2021/03/13 10:20:58;;;;;;;4.70;1.70;;;9.80;74.60;;;;;;5114021;28;20054;-69
2021/03/13 10:23:31;;;;;;;1.77;1.50;;;9.90;74.60;;;;;;5114565;28;20031;-69
2021/03/13 10:25:58;;;;;;;1.58;1.48;;;9.90;74.40;;;;;;5114409;28;20028;-70
2021/03/13 10:28:33;;;;;;;1.63;1.42;;;9.90;73.90;;;;;;5096034;28;20040;-70
2021/03/13 10:31:25;;;;;;;2.40;1.88;;;9.90;73.90;;;;;;5096152;28;20114;-70
2021/03/13 10:33:52;;;;;;;2.40;1.63;;;10.00;73.80;;;;;;5114059;28;20051;-69
2021/03/13 10:36:19;;;;;;;1.60;1.50;;;10.10;73.50;;;;;;5095759;28;20028;-69
2021/03/13 10:38:50;;;;;;;1.33;1.23;;;10.10;73.40;;;;;;5095845;28;20035;-68
2021/03/13 10:41:22;;;;;;;2.53;1.30;;;10.00;73.40;;;;;;5114609;28;20092;-68
2021/03/13 10:43:49;;;;;;;1.42;1.27;;;10.10;72.70;;;;;;5096021;28;20032;-69
2021/03/13 10:46:22;;;;;;;2.55;1.67;;;10.20;72.80;;;;;;5114534;28;20032;-68
2021/03/13 10:48:53;;;;;;;1.20;1.10;;;10.20;72.40;;;;;;5114305;28;20036;-68
2021/03/13 10:51:28;;;;;;;2.10;1.40;;;10.40;72.00;;;;;;5113916;28;20031;-68
2021/03/13 10:53:55;;;;;;;3.38;1.73;;;10.40;71.50;;;;;;5113354;28;20123;-68
2021/03/13 10:56:20;;;;;;;1.92;1.35;;;10.40;71.70;;;;;;5097161;28;20130;-69
2021/03/13 10:59:04;;;;;;;6.03;1.60;;;10.40;71.70;;;;;;5100252;28;20059;-68
2021/03/13 11:01:30;;;;;;;2.63;1.33;;;10.40;71.50;;;;;;5120123;28;20478;-68
2021/03/13 11:03:56;;;;;;;1.35;1.20;;;10.50;71.70;;;;;;5096198;28;20039;-69
2021/03/13 11:06:30;;;;;;;3.05;2.25;;;10.50;71.60;;;;;;5114002;28;20063;-68
2021/03/13 11:08:57;;;;;;;1.47;1.37;;;10.50;70.70;;;;;;5082948;28;20047;-70
2021/03/13 11:11:26;;;;;;;5.15;2.03;;;10.50;71.00;;;;;;5092488;28;20361;-69
2021/03/13 11:13:52;;;;;;;1.77;1.52;;;10.70;71.00;;;;;;5107160;28;20604;-69
2021/03/13 11:16:21;;;;;;;2.47;1.40;;;10.70;69.70;;;;;;5113420;28;20039;-68
2021/03/13 11:18:46;;;;;;;3.80;1.70;;;10.80;70.10;;;;;;5093379;28;20024;-68
2021/03/13 11:21:12;;;;;;;1.90;1.50;;;10.80;69.70;;;;;;5068692;28;20032;-67
2021/03/13 11:23:38;;;;;;;1.50;1.40;;;10.70;70.00;;;;;;5107860;28;20032;-67
2021/03/13 11:26:04;;;;;;;2.03;1.33;;;10.80;69.60;;;;;;5112331;28;20049;-67
2021/03/13 11:28:29;;;;;;;12.05;2.10;;;10.80;70.00;;;;;;5095045;28;20036;-70
2021/03/13 11:30:55;;;;;;;2.35;1.42;;;10.90;70.00;;;;;;5094391;28;20390;-68
2021/03/13 11:33:20;;;;;;;1.50;1.30;;;11.00;69.70;;;;;;5113267;28;20061;-67
2021/03/13 11:35:46;;;;;;;3.40;1.50;;;11.00;69.70;;;;;;5112268;28;20032;-67
2021/03/13 11:38:12;;;;;;;1.23;1.10;;;11.00;68.60;;;;;;5112796;28;20032;-69
2021/03/13 11:40:37;;;;;;;1.75;1.42;;;11.00;69.60;;;;;;5096612;28;20375;-68
2021/03/13 11:43:03;;;;;;;1.35;1.25;;;11.10;69.50;;;;;;5112213;28;20067;-68
2021/03/13 11:45:29;;;;;;;1.73;1.30;;;11.20;68.90;;;;;;5113112;28;20024;-70
2021/03/13 11:47:56;;;;;;;2.05;1.30;;;11.20;68.80;;;;;;5113222;28;20088;-69
2021/03/13 11:50:27;;;;;;;2.03;1.50;;;11.30;68.80;;;;;;5078251;28;20112;-68
2021/03/13 11:52:56;;;;;;;3.47;1.60;;;11.30;68.90;;;;;;5094467;28;20035;-68
2021/03/13 11:55:26;;;;;;;2.13;1.38;;;11.40;68.20;;;;;;5112951;28;20028;-68
2021/03/13 11:57:52;;;;;;;1.30;1.20;;;11.30;68.30;;;;;;5093926;28;20032;-68
2021/03/13 12:00:19;;;;;;;2.33;1.38;;;11.30;68.60;;;;;;5112927;28;20040;-68
2021/03/13 12:02:44;;;;;;;1.45;1.35;;;11.30;69.00;;;;;;5109907;28;20123;-69
2021/03/13 12:05:11;;;;;;;1.88;1.75;;;11.20;68.60;;;;;;5103742;28;20571;-68
2021/03/13 12:07:38;;;;;;;2.58;2.17;;;11.20;68.60;;;;;;5094187;28;20056;-69
2021/03/13 12:10:05;;;;;;;1.60;1.45;;;11.10;69.20;;;;;;5112253;28;20035;-68
2021/03/13 12:12:31;;;;;;;3.33;1.60;;;11.00;69.40;;;;;;5094781;28;20048;-70
2021/03/13 12:14:57;;;;;;;1.40;1.30;;;11.00;69.90;;;;;;5112897;28;20031;-68
2021/03/13 12:17:25;;;;;;;2.08;1.40;;;11.00;69.20;;;;;;5095040;28;20040;-69
2021/03/13 12:19:51;;;;;;;1.75;1.38;;;11.00;68.80;;;;;;5093940;28;20035;-70
2021/03/13 12:22:17;;;;;;;2.50;1.42;;;11.00;69.30;;;;;;5113164;28;20035;-69
2021/03/13 12:24:43;;;;;;;2.85;1.67;;;11.00;69.40;;;;;;5111941;28;20043;-68
2021/03/13 12:27:09;;;;;;;1.92;1.30;;;11.00;69.50;;;;;;5094349;28;20027;-69
2021/03/13 12:29:36;;;;;;;1.35;1.20;;;11.10;69.20;;;;;;5112732;28;20043;-68
2021/03/13 12:32:05;;;;;;;4.25;1.77;;;11.20;68.70;;;;;;5094135;28;20123;-69
2021/03/13 12:34:31;;;;;;;1.65;1.35;;;11.20;68.60;;;;;;5115068;28;20063;-69
2021/03/13 12:37:13;;;;;;;2.35;1.50;;;11.10;68.70;;;;;;5116902;28;20063;-71
2021/03/13 12:39:56;;;;;;;2.03;1.70;;;11.00;69.20;;;;;;5116853;28;20035;-71
2021/03/13 12:42:25;;;;;;;3.10;1.73;;;10.90;70.60;;;;;;5101415;28;20059;-68
2021/03/13 12:44:50;;;;;;;9.77;2.22;;;10.70;74.10;;;;;;5118013;28;20119;-71
2021/03/13 12:47:16;;;;;;;2.00;1.45;;;9.80;82.70;;;;;;5116597;28;20120;-69
2021/03/13 12:49:42;;;;;;;1.98;1.67;;;8.60;86.60;;;;;;5080993;28;20020;-68
2021/03/13 12:52:07;;;;;;;4.55;1.60;;;8.10;88.60;;;;;;5080405;28;20047;-70
2021/03/13 12:54:33;;;;;;;2.50;1.30;;;7.80;90.00;;;;;;5081436;28;20040;-70
2021/03/13 12:56:59;;;;;;;2.97;1.80;;;7.70;90.10;;;;;;5082148;28;20067;-70
2021/03/13 12:59:24;;;;;;;3.28;2.00;;;7.50;90.60;;;;;;5099009;28;20044;-69
2021/03/13 13:01:50;;;;;;;2.42;1.40;;;7.60;90.80;;;;;;5098980;28;20039;-70
2021/03/13 13:04:15;;;;;;;2.80;1.60;;;7.60;90.80;;;;;;5116653;28;20036;-70